Time;durP1;ratioP1;P1;durP2;ratioP2;P2;SDS_P1;SDS_P2;PMS_P1;PMS_P2;Temp;Humidity;BMP_temperature;BMP_pressure;BME280_temperature;BME280_humidity;BME280_pressure;Samples;Min_cycle;Max_cycle;Signal;HPM_P1;HPM_P2
2022/07/19 00:00:34;;;;;;;3.90;2.50;;;24.00;50.40;;;;;;7374135;19;20512;-49
2022/07/19 00:03:03;;;;;;;3.10;2.70;;;24.10;50.60;;;;;;7378397;19;20758;-49
2022/07/19 00:05:33;;;;;;;3.73;2.97;;;24.20;50.60;;;;;;7377029;19;20375;-49
2022/07/19 00:08:03;;;;;;;3.70;3.13;;;24.30;50.40;;;;;;7376493;19;20944;-49
2022/07/19 00:10:35;;;;;;;4.17;2.70;;;24.40;50.10;;;;;;7380983;19;20387;-49
2022/07/19 00:13:07;;;;;;;4.43;2.77;;;24.60;49.90;;;;;;7375864;19;20900;-48
2022/07/19 00:15:37;;;;;;;2.80;2.50;;;24.70;49.70;;;;;;7380430;19;20365;-49
2022/07/19 00:18:06;;;;;;;3.60;3.30;;;24.60;49.70;;;;;;7387741;19;20408;-49
2022/07/19 00:20:36;;;;;;;3.50;2.63;;;24.50;49.90;;;;;;7382224;19;20376;-45
2022/07/19 00:23:05;;;;;;;5.13;3.57;;;24.50;50.00;;;;;;7378909;19;20457;-44
2022/07/19 00:25:37;;;;;;;4.63;3.00;;;24.50;50.30;;;;;;7361103;19;20470;-45
2022/07/19 00:28:07;;;;;;;2.73;2.53;;;24.60;50.10;;;;;;7378562;19;20388;-44
2022/07/19 00:30:37;;;;;;;4.20;2.67;;;24.60;50.10;;;;;;7376363;19;20420;-45
2022/07/19 00:33:08;;;;;;;3.03;2.37;;;24.40;50.40;;;;;;7381237;19;20379;-45
2022/07/19 00:35:38;;;;;;;3.40;3.10;;;24.50;50.50;;;;;;7376684;19;20387;-44
2022/07/19 00:38:08;;;;;;;5.50;3.20;;;24.40;50.50;;;;;;7381665;19;20386;-45
2022/07/19 00:40:41;;;;;;;4.80;3.10;;;24.40;50.60;;;;;;7378703;19;20384;-45
2022/07/19 00:43:11;;;;;;;3.73;3.27;;;24.30;50.90;;;;;;7384895;19;20433;-45
2022/07/19 00:45:41;;;;;;;3.10;2.80;;;24.20;51.10;;;;;;7380324;19;20376;-45
2022/07/19 00:48:10;;;;;;;4.00;3.10;;;24.30;51.20;;;;;;7378579;19;20557;-46
2022/07/19 00:50:40;;;;;;;4.13;2.83;;;24.20;51.30;;;;;;7373532;19;21282;-50
2022/07/19 00:53:09;;;;;;;2.80;2.40;;;24.20;51.10;;;;;;7372314;19;20376;-49
2022/07/19 00:55:43;;;;;;;4.50;3.30;;;24.20;51.30;;;;;;7380395;19;20387;-49
2022/07/19 00:58:14;;;;;;;6.60;3.00;;;24.20;51.40;;;;;;7374626;19;20408;-48
2022/07/19 01:00:44;;;;;;;3.50;2.60;;;24.20;52.00;;;;;;7374109;19;20432;-49
2022/07/19 01:03:16;;;;;;;3.90;2.87;;;24.10;50.90;;;;;;7378148;19;20380;-49
2022/07/19 01:05:48;;;;;;;2.93;2.53;;;24.10;51.30;;;;;;7376299;19;20393;-49
2022/07/19 01:08:18;;;;;;;3.37;2.90;;;24.00;51.30;;;;;;7379002;19;20372;-49
2022/07/19 01:10:50;;;;;;;4.50;3.03;;;24.00;51.50;;;;;;7376655;19;20372;-49
2022/07/19 01:13:20;;;;;;;3.50;3.20;;;24.10;51.10;;;;;;7374080;19;20376;-48
2022/07/19 01:15:49;;;;;;;3.87;3.20;;;24.00;51.40;;;;;;7377292;19;20910;-49
2022/07/19 01:18:19;;;;;;;3.20;2.83;;;24.00;51.40;;;;;;7376801;19;20384;-49
2022/07/19 01:20:48;;;;;;;7.83;3.10;;;24.00;51.80;;;;;;7372269;19;20384;-49
2022/07/19 01:23:23;;;;;;;3.77;3.47;;;23.70;52.40;;;;;;7380790;19;20469;-49
2022/07/19 01:25:53;;;;;;;3.73;3.10;;;23.50;52.80;;;;;;7371564;19;20921;-49
2022/07/19 01:28:22;;;;;;;7.80;3.10;;;23.20;53.10;;;;;;7377626;19;20368;-49
2022/07/19 01:30:52;;;;;;;4.23;3.13;;;22.90;53.50;;;;;;7371217;19;20419;-50
2022/07/19 01:33:21;;;;;;;5.40;3.47;;;22.90;53.40;;;;;;7376212;19;20404;-49
2022/07/19 01:35:51;;;;;;;3.37;3.07;;;23.10;53.40;;;;;;7376736;19;20374;-49
2022/07/19 01:38:23;;;;;;;5.83;2.87;;;23.20;53.10;;;;;;7378910;19;20371;-49
2022/07/19 01:40:52;;;;;;;3.50;2.70;;;23.30;53.10;;;;;;7377396;19;20397;-48
2022/07/19 01:43:22;;;;;;;4.03;2.77;;;23.20;52.70;;;;;;7377749;19;20368;-49
2022/07/19 01:45:53;;;;;;;4.17;3.30;;;23.10;53.00;;;;;;7375152;19;20376;-52
2022/07/19 01:48:22;;;;;;;4.50;3.17;;;23.00;53.30;;;;;;7375753;19;20928;-50
2022/07/19 01:50:54;;;;;;;3.40;3.10;;;23.10;53.50;;;;;;7374566;19;20431;-45
2022/07/19 01:53:27;;;;;;;4.40;3.17;;;23.10;53.20;;;;;;7380623;19;20398;-45
2022/07/19 01:55:58;;;;;;;4.13;2.97;;;23.00;53.10;;;;;;7379421;19;20447;-44
2022/07/19 01:58:30;;;;;;;4.37;2.80;;;23.10;52.90;;;;;;7379284;19;20372;-45
2022/07/19 02:01:04;;;;;;;3.63;3.00;;;23.00;52.90;;;;;;7375648;19;20432;-44
2022/07/19 02:03:36;;;;;;;6.83;3.00;;;22.80;53.30;;;;;;7375324;19;20365;-44
2022/07/19 02:06:05;;;;;;;2.90;2.60;;;22.70;53.50;;;;;;7379489;19;20811;-45
2022/07/19 02:08:38;;;;;;;3.03;2.60;;;22.90;53.10;;;;;;7379894;19;20372;-44
2022/07/19 02:13:50;;;;;;;3.97;3.10;;;23.00;52.90;;;;;;7377572;19;20426;-45
2022/07/19 02:16:19;;;;;;;3.37;3.07;;;23.00;52.80;;;;;;7374249;19;20372;-44
2022/07/19 02:18:51;;;;;;;3.77;2.80;;;22.90;52.50;;;;;;7376853;19;20368;-45
2022/07/19 02:21:21;;;;;;;3.67;2.80;;;22.70;52.90;;;;;;7374794;19;20376;-44
2022/07/19 02:23:53;;;;;;;4.07;2.87;;;22.60;53.20;;;;;;7372059;19;20916;-44
2022/07/19 02:26:22;;;;;;;4.67;2.60;;;22.70;53.30;;;;;;7382540;19;20406;-45
2022/07/19 02:28:54;;;;;;;3.30;2.83;;;22.90;53.00;;;;;;7368309;19;20384;-45
2022/07/19 02:31:25;;;;;;;4.13;2.90;;;22.60;53.10;;;;;;7372160;19;20388;-45
2022/07/19 02:33:54;;;;;;;3.10;2.43;;;22.50;53.40;;;;;;7372681;19;20420;-45
2022/07/19 02:36:26;;;;;;;3.20;2.70;;;22.40;53.60;;;;;;7370967;19;20372;-45
2022/07/19 02:38:59;;;;;;;3.70;2.53;;;22.30;53.80;;;;;;7378380;19;20396;-45
2022/07/19 02:41:28;;;;;;;3.60;2.87;;;22.20;54.40;;;;;;7373992;19;20460;-45
2022/07/19 02:43:58;;;;;;;5.10;2.70;;;22.10;54.50;;;;;;7375283;19;20419;-45
2022/07/19 02:46:27;;;;;;;4.70;3.00;;;22.10;54.50;;;;;;7371048;19;20373;-45
2022/07/19 02:48:57;;;;;;;3.20;2.83;;;22.30;54.30;;;;;;7373326;19;21068;-45
2022/07/19 02:51:29;;;;;;;4.60;2.67;;;22.30;53.90;;;;;;7374004;19;20408;-45
2022/07/19 02:54:01;;;;;;;3.27;2.97;;;22.40;53.50;;;;;;7380317;19;20904;-45
2022/07/19 02:56:31;;;;;;;3.43;2.63;;;22.40;53.60;;;;;;7375861;19;20413;-45
2022/07/19 02:59:00;;;;;;;4.83;2.87;;;22.40;53.50;;;;;;7377115;19;20368;-45
2022/07/19 03:01:30;;;;;;;3.97;3.13;;;22.50;53.40;;;;;;7370321;19;20425;-45
2022/07/19 03:03:59;;;;;;;4.53;2.73;;;22.70;53.50;;;;;;7373752;19;20801;-45
2022/07/19 03:06:29;;;;;;;4.83;2.40;;;22.60;53.50;;;;;;7376443;19;20414;-45
2022/07/19 03:09:01;;;;;;;6.40;2.80;;;22.50;53.60;;;;;;7373755;19;20372;-45
2022/07/19 03:11:31;;;;;;;3.50;2.40;;;22.30;54.10;;;;;;7376602;19;20376;-45
2022/07/19 03:14:00;;;;;;;3.17;2.70;;;22.00;55.10;;;;;;7372965;19;21281;-45
2022/07/19 03:16:30;;;;;;;3.40;3.10;;;21.90;55.40;;;;;;7368787;19;21421;-45
2022/07/19 03:18:59;;;;;;;4.20;2.53;;;21.90;54.90;;;;;;7372296;19;21051;-45
2022/07/19 03:21:29;;;;;;;4.27;2.47;;;21.80;55.20;;;;;;7378304;19;20372;-45
2022/07/19 03:24:03;;;;;;;3.50;2.73;;;21.80;55.20;;;;;;7376706;19;20470;-45
2022/07/19 03:26:32;;;;;;;4.23;2.60;;;21.90;54.40;;;;;;7370911;19;20507;-45
2022/07/19 03:29:02;;;;;;;3.80;2.50;;;22.00;54.30;;;;;;7372668;19;20402;-45
2022/07/19 03:31:31;;;;;;;2.93;2.60;;;22.30;54.50;;;;;;7375851;19;20489;-45
2022/07/19 03:34:04;;;;;;;3.07;2.77;;;22.30;54.20;;;;;;7376122;19;20383;-45
2022/07/19 03:36:33;;;;;;;2.70;2.50;;;22.20;54.10;;;;;;7374977;19;20918;-45
2022/07/19 03:39:06;;;;;;;2.97;2.57;;;22.20;54.60;;;;;;7377479;19;20440;-45
2022/07/19 03:41:38;;;;;;;4.33;2.83;;;22.20;54.80;;;;;;7376613;19;20738;-45
2022/07/19 03:44:07;;;;;;;3.20;2.70;;;22.30;54.80;;;;;;7370972;19;20372;-45
2022/07/19 03:46:40;;;;;;;3.03;2.63;;;22.20;54.90;;;;;;7367938;19;20411;-45
2022/07/19 03:49:09;;;;;;;5.10;3.17;;;22.20;54.80;;;;;;7372527;19;20507;-45
2022/07/19 03:51:39;;;;;;;5.23;3.00;;;22.30;54.80;;;;;;7383039;19;20376;-49
2022/07/19 03:54:11;;;;;;;4.70;2.50;;;22.30;54.90;;;;;;7368886;19;20406;-49
2022/07/19 03:56:40;;;;;;;3.40;2.70;;;22.30;54.70;;;;;;7376453;19;20372;-50
2022/07/19 03:59:10;;;;;;;5.90;3.27;;;22.30;54.90;;;;;;7382559;19;20917;-49
2022/07/19 04:01:40;;;;;;;3.10;2.60;;;22.30;54.70;;;;;;7378133;19;20380;-50
2022/07/19 04:04:10;;;;;;;3.30;3.00;;;22.30;54.70;;;;;;7376953;19;20372;-49
2022/07/19 04:06:39;;;;;;;3.67;2.90;;;22.50;54.60;;;;;;7382045;19;20379;-49
2022/07/19 04:09:11;;;;;;;3.83;2.83;;;22.40;54.70;;;;;;7371461;19;20379;-51
2022/07/19 04:11:41;;;;;;;3.03;2.40;;;22.50;54.90;;;;;;7377668;19;20392;-49
2022/07/19 04:14:10;;;;;;;4.87;3.10;;;22.50;54.60;;;;;;7379772;19;20389;-50
2022/07/19 04:16:42;;;;;;;3.70;3.03;;;22.40;54.50;;;;;;7375945;19;20893;-49
2022/07/19 04:19:12;;;;;;;4.03;3.20;;;22.30;54.60;;;;;;7371226;19;20373;-49
2022/07/19 04:21:41;;;;;;;3.10;2.77;;;22.20;55.20;;;;;;7375763;19;20372;-51
2022/07/19 04:24:15;;;;;;;4.93;3.33;;;22.10;55.20;;;;;;7378863;19;20388;-49
2022/07/19 04:26:45;;;;;;;5.53;3.60;;;22.10;55.40;;;;;;7376804;19;20383;-49
2022/07/19 04:29:17;;;;;;;7.70;2.90;;;22.00;55.40;;;;;;7378068;19;20726;-49
2022/07/19 04:31:46;;;;;;;4.37;2.83;;;22.00;55.80;;;;;;7364826;19;20472;-49
2022/07/19 04:34:16;;;;;;;4.67;2.83;;;21.90;56.00;;;;;;7374892;19;20376;-51
2022/07/19 04:36:45;;;;;;;4.07;3.07;;;21.90;55.70;;;;;;7386412;19;20902;-50
2022/07/19 04:39:20;;;;;;;3.07;2.80;;;21.90;55.90;;;;;;7389696;19;20384;-49
2022/07/19 04:41:49;;;;;;;3.63;2.40;;;21.80;56.30;;;;;;7386938;19;20383;-49
2022/07/19 04:44:19;;;;;;;4.53;2.93;;;21.80;56.40;;;;;;7388884;19;20731;-49
2022/07/19 04:46:48;;;;;;;5.27;2.70;;;21.60;56.70;;;;;;7386955;19;20420;-50
2022/07/19 04:49:18;;;;;;;4.53;2.67;;;21.80;57.00;;;;;;7386077;19;20382;-50
2022/07/19 04:51:47;;;;;;;3.47;3.00;;;21.80;56.50;;;;;;7387604;19;20380;-49
2022/07/19 04:54:19;;;;;;;4.23;3.00;;;21.90;56.50;;;;;;7388460;19;20750;-50
2022/07/19 04:56:51;;;;;;;3.73;2.93;;;22.00;56.20;;;;;;7387882;19;20396;-50
2022/07/19 04:59:21;;;;;;;3.97;3.13;;;21.50;57.40;;;;;;7385262;19;20913;-50
2022/07/19 05:01:50;;;;;;;6.50;2.50;;;21.50;57.80;;;;;;7381723;19;20388;-51
2022/07/19 05:04:19;;;;;;;3.20;2.90;;;21.60;57.40;;;;;;7381899;19;20389;-49
2022/07/19 05:06:51;;;;;;;2.90;2.60;;;21.80;57.30;;;;;;7383494;19;20372;-50
2022/07/19 05:09:23;;;;;;;4.10;3.03;;;22.00;57.00;;;;;;7377645;19;20903;-49
2022/07/19 05:11:53;;;;;;;3.80;3.37;;;22.20;56.70;;;;;;7382504;19;20966;-50
2022/07/19 05:14:23;;;;;;;2.80;2.60;;;22.30;56.30;;;;;;7373897;19;20650;-51
2022/07/19 05:16:52;;;;;;;4.93;2.80;;;22.40;56.00;;;;;;7377297;19;20380;-49
2022/07/19 05:19:22;;;;;;;5.20;2.97;;;22.20;56.40;;;;;;7378721;19;20398;-50
2022/07/19 05:21:51;;;;;;;3.93;3.07;;;22.00;56.50;;;;;;7373565;19;20372;-51
2022/07/19 05:24:26;;;;;;;4.50;2.97;;;22.10;56.20;;;;;;7372186;19;21090;-49
2022/07/19 05:26:58;;;;;;;4.43;3.03;;;22.30;56.10;;;;;;7377102;19;20398;-51
2022/07/19 05:29:27;;;;;;;3.53;3.20;;;22.60;55.50;;;;;;7368802;19;20372;-45
2022/07/19 05:31:59;;;;;;;2.97;2.70;;;22.60;55.40;;;;;;7377350;19;20889;-45
2022/07/19 05:34:29;;;;;;;4.47;3.20;;;22.90;55.00;;;;;;7372777;19;20807;-45
2022/07/19 05:36:58;;;;;;;3.60;3.30;;;23.00;54.60;;;;;;7384388;19;20384;-45
2022/07/19 05:39:30;;;;;;;4.97;3.40;;;23.10;54.40;;;;;;7385031;19;20443;-45
2022/07/19 05:42:00;;;;;;;5.10;3.40;;;23.20;54.30;;;;;;7384030;19;20388;-45
2022/07/19 05:44:29;;;;;;;3.70;3.07;;;23.30;53.90;;;;;;7384006;19;20383;-45
2022/07/19 05:46:59;;;;;;;5.07;3.53;;;23.40;53.70;;;;;;7382011;19;20393;-45
2022/07/19 05:49:28;;;;;;;6.57;3.37;;;23.40;53.80;;;;;;7383859;19;20387;-45
2022/07/19 05:51:57;;;;;;;6.63;3.60;;;23.50;53.90;;;;;;7382154;19;20376;-45
2022/07/19 05:54:30;;;;;;;5.63;3.57;;;23.60;54.00;;;;;;7379162;19;20410;-45
2022/07/19 05:56:59;;;;;;;3.97;3.57;;;23.70;53.90;;;;;;7383976;19;20368;-45
2022/07/19 05:59:28;;;;;;;5.47;4.20;;;23.70;53.80;;;;;;7384646;19;20467;-45
2022/07/19 06:01:58;;;;;;;6.37;3.90;;;23.80;53.50;;;;;;7379866;19;20411;-45
2022/07/19 06:04:27;;;;;;;6.17;3.73;;;23.90;53.50;;;;;;7383285;19;20380;-45
2022/07/19 06:06:57;;;;;;;4.40;3.40;;;24.00;53.40;;;;;;7384077;19;20380;-45
2022/07/19 06:09:26;;;;;;;5.47;4.43;;;24.10;53.40;;;;;;7385817;19;20391;-45
2022/07/19 06:11:58;;;;;;;5.53;3.53;;;24.10;53.40;;;;;;7383907;19;20381;-45
2022/07/19 06:14:28;;;;;;;5.53;4.37;;;24.20;53.60;;;;;;7383766;19;20713;-45
2022/07/19 06:17:00;;;;;;;5.47;4.80;;;24.30;53.70;;;;;;7384341;19;20381;-45
2022/07/19 06:19:29;;;;;;;4.70;4.00;;;24.30;53.50;;;;;;7382479;19;20380;-45
2022/07/19 06:21:58;;;;;;;5.13;4.10;;;24.50;53.50;;;;;;7380104;19;20389;-45
2022/07/19 06:24:28;;;;;;;6.87;3.37;;;24.50;53.00;;;;;;7384144;19;20371;-45
2022/07/19 06:27:00;;;;;;;7.50;5.00;;;24.60;53.00;;;;;;7381515;19;21707;-45
2022/07/19 06:29:29;;;;;;;6.17;3.77;;;24.80;51.60;;;;;;7381553;19;20737;-49
2022/07/19 06:32:01;;;;;;;6.13;3.83;;;24.90;51.90;;;;;;7384633;19;20384;-51
2022/07/19 06:34:31;;;;;;;4.10;3.70;;;25.00;51.70;;;;;;7384185;19;20445;-49
2022/07/19 06:37:02;;;;;;;3.10;2.80;;;25.10;50.90;;;;;;7383880;19;20379;-51
2022/07/19 06:39:32;;;;;;;4.33;3.50;;;25.20;50.40;;;;;;7385003;19;20380;-49
2022/07/19 06:42:06;;;;;;;4.17;3.77;;;25.30;49.80;;;;;;7384355;19;20399;-49
2022/07/19 06:44:37;;;;;;;4.37;3.93;;;25.40;49.50;;;;;;7384097;19;20367;-51
2022/07/19 06:47:09;;;;;;;6.43;4.00;;;25.50;50.20;;;;;;7381743;19;20387;-51
2022/07/19 06:49:38;;;;;;;5.43;3.73;;;25.60;49.80;;;;;;7384208;19;20979;-50
2022/07/19 06:52:08;;;;;;;7.03;3.23;;;25.70;49.10;;;;;;7384786;19;20376;-50
2022/07/19 06:54:38;;;;;;;4.33;3.50;;;25.80;48.90;;;;;;7385712;19;20964;-50
2022/07/19 06:57:10;;;;;;;7.23;3.50;;;25.90;49.40;;;;;;7381615;19;20385;-50
2022/07/19 06:59:39;;;;;;;6.20;4.53;;;26.00;49.00;;;;;;7384133;19;20965;-49
2022/07/19 07:02:09;;;;;;;4.10;3.60;;;26.10;49.10;;;;;;7383915;19;20376;-49
2022/07/19 07:04:41;;;;;;;3.90;3.43;;;26.30;48.60;;;;;;7383959;19;20387;-49
2022/07/19 07:07:10;;;;;;;5.60;4.60;;;26.40;48.70;;;;;;7380856;19;20440;-49
2022/07/19 07:09:39;;;;;;;6.37;3.90;;;26.50;48.60;;;;;;7379745;19;20954;-49
2022/07/19 07:12:12;;;;;;;6.47;4.33;;;26.60;48.50;;;;;;7378255;19;20975;-49
2022/07/19 07:14:41;;;;;;;8.60;5.73;;;26.80;49.20;;;;;;7382761;19;20380;-50
2022/07/19 07:17:11;;;;;;;7.47;5.67;;;26.90;49.50;;;;;;7382060;19;20369;-49
2022/07/19 07:19:42;;;;;;;7.80;4.90;;;27.00;49.00;;;;;;7384971;19;20758;-49
2022/07/19 07:22:12;;;;;;;9.07;5.27;;;27.10;48.50;;;;;;7384206;19;20388;-49
2022/07/19 07:24:42;;;;;;;6.80;5.37;;;27.20;48.60;;;;;;7383928;19;20941;-50
2022/07/19 07:27:14;;;;;;;8.40;5.93;;;27.40;48.70;;;;;;7377038;19;20392;-49
2022/07/19 07:29:43;;;;;;;10.73;6.20;;;27.50;48.50;;;;;;7380880;19;20413;-46
2022/07/19 07:32:13;;;;;;;9.20;5.40;;;27.60;48.10;;;;;;7386245;19;20380;-45
2022/07/19 07:34:42;;;;;;;7.53;5.20;;;27.80;47.70;;;;;;7390042;19;21000;-46
2022/07/19 07:37:14;;;;;;;7.10;4.57;;;27.90;47.40;;;;;;7385260;19;20448;-46
2022/07/19 07:39:43;;;;;;;8.63;4.73;;;28.00;47.60;;;;;;7389001;19;20376;-46
2022/07/19 07:42:16;;;;;;;10.27;4.97;;;28.20;46.90;;;;;;7387130;19;20409;-46
2022/07/19 07:44:45;;;;;;;3.83;2.70;;;28.30;46.30;;;;;;7388938;19;20372;-46
2022/07/19 07:47:14;;;;;;;2.70;2.20;;;28.50;43.00;;;;;;7390913;19;20780;-46
2022/07/19 07:49:44;;;;;;;2.43;1.97;;;28.60;39.50;;;;;;7386369;19;20384;-46
2022/07/19 07:52:13;;;;;;;2.73;2.40;;;28.70;39.40;;;;;;7386482;19;20936;-46
2022/07/19 07:54:43;;;;;;;3.40;2.00;;;28.80;39.20;;;;;;7391125;19;21052;-46
2022/07/19 07:57:15;;;;;;;10.23;2.80;;;29.00;38.90;;;;;;7384973;19;20376;-46
2022/07/19 07:59:44;;;;;;;7.00;3.40;;;29.20;39.80;;;;;;7384672;19;20437;-46
2022/07/19 08:02:14;;;;;;;10.03;3.67;;;29.30;41.40;;;;;;7387574;19;20376;-46
2022/07/19 08:04:43;;;;;;;4.40;2.17;;;29.50;41.20;;;;;;7386760;19;20375;-46
2022/07/19 08:07:13;;;;;;;2.57;2.20;;;29.60;38.40;;;;;;7388020;19;20440;-46
2022/07/19 08:09:42;;;;;;;3.60;2.17;;;29.80;37.90;;;;;;7387281;19;20384;-46
2022/07/19 08:12:14;;;;;;;5.17;2.47;;;29.90;37.20;;;;;;7390534;19;20969;-46
2022/07/19 08:14:44;;;;;;;2.43;1.80;;;30.00;37.30;;;;;;7388096;19;20376;-46
2022/07/19 08:17:13;;;;;;;2.30;2.10;;;30.20;36.50;;;;;;7388296;19;20460;-46
2022/07/19 08:19:43;;;;;;;2.20;2.00;;;30.20;36.40;;;;;;7389439;19;20443;-46
2022/07/19 08:22:12;;;;;;;3.23;2.10;;;30.40;35.20;;;;;;7388410;19;20360;-46
2022/07/19 08:24:44;;;;;;;7.63;2.00;;;30.40;35.00;;;;;;7388475;19;20388;-46
2022/07/19 08:27:16;;;;;;;5.60;2.10;;;30.40;35.40;;;;;;7386405;19;20391;-46
2022/07/19 08:29:46;;;;;;;2.07;1.97;;;30.50;35.20;;;;;;7389010;19;20413;-46
2022/07/19 08:32:16;;;;;;;5.67;2.10;;;30.60;34.50;;;;;;7388594;19;20401;-46
2022/07/19 08:34:45;;;;;;;2.60;1.97;;;30.80;34.40;;;;;;7389313;19;20376;-46
2022/07/19 08:37:15;;;;;;;6.40;2.50;;;30.80;34.20;;;;;;7388484;19;20376;-46
2022/07/19 08:39:44;;;;;;;2.37;2.13;;;31.00;34.70;;;;;;7383323;19;20376;-46
2022/07/19 08:42:21;;;;;;;2.00;1.80;;;31.10;35.00;;;;;;7389833;19;20748;-46
2022/07/19 08:44:53;;;;;;;2.53;2.10;;;31.20;34.40;;;;;;7386808;19;20368;-46
2022/07/19 08:47:26;;;;;;;2.33;2.10;;;31.40;34.50;;;;;;7386739;19;21402;-46
2022/07/19 08:50:00;;;;;;;2.40;2.10;;;31.60;34.20;;;;;;7383886;19;20484;-46
2022/07/19 08:52:30;;;;;;;2.53;2.30;;;31.70;33.80;;;;;;7389457;19;20839;-46
2022/07/19 08:54:59;;;;;;;3.43;2.60;;;31.80;33.60;;;;;;7386017;19;20456;-46
2022/07/19 09:00:17;;;;;;;2.57;1.77;;;32.10;33.80;;;;;;7388806;19;20428;-47
2022/07/19 09:02:59;;;;;;;5.70;2.37;;;32.40;33.80;;;;;;7389287;19;20379;-47
2022/07/19 09:05:29;;;;;;;2.50;1.70;;;32.60;33.40;;;;;;7389429;19;20807;-46
2022/07/19 09:08:08;;;;;;;2.33;2.00;;;32.90;32.60;;;;;;7385806;19;20408;-46
2022/07/19 09:10:39;;;;;;;1.90;1.80;;;32.90;31.60;;;;;;7386073;19;20380;-50
2022/07/19 09:13:14;;;;;;;2.90;2.20;;;33.00;31.20;;;;;;7388187;19;20415;-50
2022/07/19 09:15:49;;;;;;;5.60;1.90;;;33.00;31.80;;;;;;7387013;19;20368;-51
2022/07/19 09:18:21;;;;;;;2.70;1.90;;;32.90;31.40;;;;;;7384086;19;20400;-51
2022/07/19 09:20:53;;;;;;;2.67;2.47;;;32.90;31.50;;;;;;7384937;19;20408;-50
2022/07/19 09:23:23;;;;;;;5.10;2.47;;;33.10;31.80;;;;;;7386145;19;20745;-50
2022/07/19 09:25:56;;;;;;;3.77;2.17;;;33.30;31.40;;;;;;7385440;19;20434;-50
2022/07/19 09:28:31;;;;;;;2.13;1.90;;;33.60;31.30;;;;;;7387548;19;20387;-51
2022/07/19 09:31:02;;;;;;;5.50;1.97;;;33.80;29.60;;;;;;7384616;19;20443;-50
2022/07/19 09:33:33;;;;;;;3.43;2.10;;;33.90;29.70;;;;;;7385851;19;21137;-50
2022/07/19 09:36:05;;;;;;;2.60;1.87;;;34.00;29.70;;;;;;7383097;19;20400;-50
2022/07/19 09:38:36;;;;;;;2.10;1.90;;;34.20;29.50;;;;;;7384151;19;20441;-51
2022/07/19 09:41:13;;;;;;;3.40;1.90;;;34.40;28.60;;;;;;7384063;19;20916;-46
2022/07/19 09:43:55;;;;;;;4.63;2.50;;;34.40;28.60;;;;;;7383880;19;20375;-47
2022/07/19 09:46:34;;;;;;;4.57;2.47;;;34.50;28.60;;;;;;7380815;19;20376;-47
2022/07/19 09:49:08;;;;;;;3.07;2.40;;;34.80;28.30;;;;;;7386082;19;20383;-47
2022/07/19 09:51:42;;;;;;;2.90;2.57;;;35.10;27.80;;;;;;7383295;19;20383;-47
2022/07/19 09:54:16;;;;;;;3.70;2.73;;;35.30;27.20;;;;;;7382004;19;20371;-47
2022/07/19 09:56:48;;;;;;;2.60;2.30;;;35.30;27.10;;;;;;7384101;19;20372;-47
2022/07/19 09:59:21;;;;;;;3.50;2.43;;;35.40;27.00;;;;;;7386722;19;20387;-47
2022/07/19 10:01:53;;;;;;;4.23;2.50;;;35.40;26.50;;;;;;7386318;19;20412;-47
2022/07/19 10:04:24;;;;;;;4.90;2.47;;;35.40;26.60;;;;;;7383269;19;20365;-47
2022/07/19 10:06:54;;;;;;;3.20;2.63;;;35.30;27.00;;;;;;7386512;19;20372;-47
2022/07/19 10:09:25;;;;;;;3.53;2.80;;;35.50;26.60;;;;;;7383181;19;20922;-50
2022/07/19 10:11:55;;;;;;;2.80;2.30;;;35.80;26.60;;;;;;7383606;19;20909;-51
2022/07/19 10:14:28;;;;;;;5.37;3.03;;;35.80;26.80;;;;;;7385424;19;20374;-51
2022/07/19 10:17:11;;;;;;;4.87;2.87;;;36.10;26.50;;;;;;7383002;19;20417;-51
2022/07/19 10:19:42;;;;;;;5.73;2.93;;;36.40;26.10;;;;;;7384515;19;20918;-51
2022/07/19 10:22:13;;;;;;;3.03;2.40;;;36.60;25.90;;;;;;7382319;19;20376;-50
2022/07/19 10:24:49;;;;;;;4.80;3.40;;;37.10;25.70;;;;;;7381245;19;20942;-50
2022/07/19 10:27:38;;;;;;;4.10;2.90;;;38.10;25.60;;;;;;7368044;19;20375;-50
2022/07/19 10:30:25;;;;;;;3.53;3.13;;;38.50;24.80;;;;;;7375992;19;20419;-50
2022/07/19 10:32:58;;;;;;;3.90;2.50;;;38.60;24.80;;;;;;7377470;19;20428;-51
2022/07/19 10:35:32;;;;;;;4.30;2.67;;;38.80;24.50;;;;;;7375402;19;20689;-51
2022/07/19 10:38:13;;;;;;;2.43;2.23;;;38.60;24.80;;;;;;7378178;19;20372;-50
2022/07/19 10:40:47;;;;;;;3.30;3.00;;;38.20;24.80;;;;;;7385910;19;20384;-47
2022/07/19 10:43:18;;;;;;;3.00;2.70;;;38.00;25.50;;;;;;7384302;19;21309;-47
2022/07/19 10:46:15;;;;;;;4.87;2.53;;;37.90;25.10;;;;;;7382172;19;20361;-47
2022/07/19 10:48:48;;;;;;;3.63;3.27;;;37.60;25.60;;;;;;7386898;19;21073;-47
2022/07/19 10:51:30;;;;;;;4.23;2.67;;;38.00;25.50;;;;;;7384997;19;20375;-47
2022/07/19 10:54:05;;;;;;;4.90;2.80;;;38.20;24.90;;;;;;7385050;19;20443;-47
2022/07/19 10:57:00;;;;;;;2.60;2.40;;;38.40;25.00;;;;;;7386490;19;20383;-47
2022/07/19 10:59:43;;;;;;;3.33;2.57;;;38.30;24.90;;;;;;7382488;19;20417;-46
2022/07/19 11:02:35;;;;;;;2.73;2.53;;;37.90;25.00;;;;;;7385384;19;20916;-47
2022/07/19 11:05:06;;;;;;;2.77;2.57;;;37.80;25.20;;;;;;7381033;19;20453;-47
2022/07/19 11:07:36;;;;;;;3.10;2.40;;;37.90;25.10;;;;;;7385005;19;20836;-47
2022/07/19 11:10:06;;;;;;;4.80;2.70;;;38.00;24.80;;;;;;7390529;19;20450;-47
2022/07/19 11:12:39;;;;;;;3.23;2.30;;;38.20;24.30;;;;;;7391480;19;20882;-47
2022/07/19 11:15:12;;;;;;;3.20;2.67;;;38.00;24.60;;;;;;7389207;19;20376;-47
2022/07/19 11:17:53;;;;;;;4.23;3.13;;;38.20;24.80;;;;;;7392373;19;20424;-47
2022/07/19 11:20:25;;;;;;;4.07;2.73;;;38.60;24.40;;;;;;7389571;19;20391;-47
2022/07/19 11:22:58;;;;;;;2.60;2.40;;;38.80;24.70;;;;;;7389651;19;20778;-47
2022/07/19 11:25:31;;;;;;;2.33;2.10;;;38.70;24.30;;;;;;7390000;19;20436;-47
2022/07/19 11:28:01;;;;;;;3.50;2.47;;;38.90;24.00;;;;;;7391472;19;20384;-47
2022/07/19 11:30:34;;;;;;;3.20;2.63;;;38.60;23.90;;;;;;7389859;19;20372;-47
2022/07/19 11:33:08;;;;;;;2.63;2.43;;;38.60;24.10;;;;;;7391147;19;20383;-47
2022/07/19 11:35:40;;;;;;;3.33;2.40;;;38.20;24.40;;;;;;7391637;19;20376;-47
2022/07/19 11:38:09;;;;;;;3.37;2.40;;;38.20;24.60;;;;;;7389610;19;20788;-47
2022/07/19 11:40:41;;;;;;;3.63;2.30;;;37.90;24.70;;;;;;7390032;19;20391;-47
2022/07/19 11:43:11;;;;;;;3.10;2.60;;;38.00;24.80;;;;;;7389037;19;20902;-47
2022/07/19 11:45:48;;;;;;;2.90;2.23;;;38.00;24.10;;;;;;7388589;19;20375;-47
2022/07/19 11:48:31;;;;;;;2.90;2.40;;;37.60;24.40;;;;;;7389774;19;20367;-47
2022/07/19 11:51:03;;;;;;;3.60;2.93;;;37.40;24.70;;;;;;7389513;19;20508;-47
2022/07/19 11:53:32;;;;;;;4.00;2.70;;;37.80;24.90;;;;;;7388674;19;20384;-47
2022/07/19 11:56:02;;;;;;;4.80;2.93;;;38.20;24.60;;;;;;7389875;19;20417;-47
2022/07/19 11:58:32;;;;;;;2.70;2.10;;;38.40;24.70;;;;;;7387429;19;20425;-47
2022/07/19 12:01:06;;;;;;;4.40;2.90;;;38.30;24.70;;;;;;7389814;19;20808;-47
2022/07/19 12:03:39;;;;;;;3.67;2.93;;;38.70;24.80;;;;;;7388506;19;20382;-47
2022/07/19 12:06:10;;;;;;;3.50;2.80;;;38.50;24.00;;;;;;7387180;19;20805;-47
2022/07/19 12:08:45;;;;;;;3.13;2.50;;;38.10;24.40;;;;;;7391461;19;20417;-48
2022/07/19 12:11:27;;;;;;;4.27;2.33;;;37.80;24.70;;;;;;7387409;19;20392;-47
2022/07/19 12:13:58;;;;;;;4.77;2.33;;;38.10;24.70;;;;;;7389930;19;20384;-47
2022/07/19 12:16:32;;;;;;;4.20;2.60;;;38.20;24.50;;;;;;7387096;19;20745;-47
2022/07/19 12:19:14;;;;;;;4.00;2.83;;;38.50;24.50;;;;;;7386540;19;20382;-47
2022/07/19 12:21:44;;;;;;;5.00;3.03;;;38.30;24.60;;;;;;7389404;19;20375;-47
2022/07/19 12:24:22;;;;;;;3.10;2.40;;;38.30;24.60;;;;;;7389749;19;20402;-47
2022/07/19 12:27:02;;;;;;;3.40;2.70;;;38.40;24.50;;;;;;7383858;19;20388;-47
2022/07/19 12:29:38;;;;;;;6.00;2.57;;;38.10;24.40;;;;;;7387909;19;20388;-47
2022/07/19 12:32:12;;;;;;;5.57;3.20;;;38.10;24.80;;;;;;7386409;19;20376;-47
2022/07/19 12:34:50;;;;;;;5.17;2.50;;;38.30;24.80;;;;;;7389116;19;20393;-47
2022/07/19 12:37:27;;;;;;;3.37;2.87;;;38.50;25.10;;;;;;7386616;19;20380;-47
2022/07/19 12:40:06;;;;;;;3.30;2.90;;;38.80;24.90;;;;;;7388534;19;20379;-47
2022/07/19 12:42:44;;;;;;;5.93;3.30;;;39.10;24.30;;;;;;7389192;19;20390;-47
2022/07/19 12:45:16;;;;;;;4.47;2.30;;;39.20;24.60;;;;;;7387641;19;20372;-47
2022/07/19 12:47:49;;;;;;;5.63;2.70;;;39.00;24.40;;;;;;7386239;19;20869;-47
2022/07/19 12:50:27;;;;;;;3.40;2.50;;;38.50;24.70;;;;;;7387718;19;20388;-47
2022/07/19 12:52:58;;;;;;;3.00;2.70;;;38.40;25.00;;;;;;7385635;19;20399;-47
2022/07/19 12:55:30;;;;;;;3.77;2.73;;;38.10;24.90;;;;;;7389024;19;20751;-47
2022/07/19 12:58:01;;;;;;;5.03;2.83;;;38.00;24.70;;;;;;7386398;19;20368;-47
2022/07/19 13:00:34;;;;;;;3.87;3.20;;;37.70;25.30;;;;;;7385058;19;20435;-47
2022/07/19 13:03:05;;;;;;;3.77;3.00;;;37.80;25.50;;;;;;7383872;19;20387;-47
2022/07/19 13:05:39;;;;;;;3.23;2.60;;;37.90;25.60;;;;;;7385435;19;20443;-47
2022/07/19 13:08:09;;;;;;;4.60;2.77;;;37.80;25.50;;;;;;7387015;19;20505;-47
2022/07/19 13:10:40;;;;;;;4.50;3.20;;;37.50;25.80;;;;;;7385910;19;20439;-48
2022/07/19 13:13:12;;;;;;;4.30;2.90;;;37.40;26.20;;;;;;7383856;19;20770;-47